Airfield :
LOGIN :

Register | Disclaimer

   EN    FR    IT 

 










Legend :    VFR   Marginal VFR   IFR   Intensive IFR   Very Intensive IFR
Visi :
Ceiling :
>= 8 km
>= 3000ft
5 to 8 km
1000 to 3000 ft
1500m to 5 km
500 to 1000 ft
800 to 1500m
200 to 500 ft
< 800m
< 200 ft
Symbols :   Thunderstorms  Fog  Heavy snow  Heavy precipitations  Wind > 20 kt
SIGMETs :     Misc.  Thunderstorms  Icing  Turbulence  Mountain Waves  Volcanic Ashes






- Airport Elevation : 200 ft


EBBL - Klein Brogel AB

CURRENT METAR :
  • 291825Z AUTO 22011KT 6000 -DZ OVC015/// 02/M01 Q1023 WHT

EXPIRED METARs :
  • 291813Z AUTO 22012KT 3400 -DZ OVC015/// 02/M01 Q1023 YLO
  • 291741Z AUTO 21010KT 9999 SCT018/// OVC036/// 02/M02 Q1024 WHT
  • 291725Z AUTO 22011KT 9999 FEW020/// OVC033/// 02/M02 Q1024 BLU
  • 291713Z AUTO 21010KT 9999 FEW020/// OVC033/// 02/M02 Q1024 BLU
  • 291655Z AUTO 21010KT 9999 SCT021/// BKN033/// OVC044/// 02/M02 Q1024 WHT
  • 291625Z AUTO 22010KT 9999 OVC022/// 02/M02 Q1024 WHT
  • 291555Z AUTO 21010KT 9999 OVC021/// 02/M01 Q1024 WHT

TAF TAF EBBL
Valid from the 29 at 19:00 until the 30 at 07:00 UTC


291541Z 2919/3007 22012G22KT 9999 BKN015 BKN020
BECMG 2920/2922 BKN010 BKN015
BECMG 3002/3004 6000 -DZ BKN007 BKN012
TEMPO 3004/3007 4000 DZ BKN005 BKN008



MET'MAP, your aeronautical weather chart ! - Copyright ORBIFLY December 2007 - Disclaimer

ORBIFLY MET'MAP TEAM :

Programming & Development : Alexandra Zaïnal
Original concept : Baudouin d'Aumeries
Technical & hardware support : Manuel Goepfert
Assistance : Marc-Olivier Méhu




SOURCES & CREDITS :

   NOAA